createdAt,value
2022-12-08T00:02:23.323Z,-0.87
2022-12-08T00:05:44.866Z,-0.90
2022-12-08T00:09:06.284Z,-0.95
2022-12-08T00:12:13.193Z,-1.00
2022-12-08T00:15:15.566Z,-0.98
2022-12-08T00:18:18.106Z,-1.05
2022-12-08T00:21:20.389Z,-0.97
2022-12-08T00:24:25.074Z,-0.94
2022-12-08T00:27:27.320Z,-1.04
2022-12-08T00:30:30.107Z,-1.03
2022-12-08T00:33:32.352Z,-1.07
2022-12-08T00:36:34.845Z,-1.06
2022-12-08T00:39:37.347Z,-1.00
2022-12-08T00:42:39.924Z,-0.97
2022-12-08T00:45:43.050Z,-0.86
2022-12-08T00:48:45.967Z,-0.75
2022-12-08T00:51:48.383Z,-0.72
2022-12-08T00:54:50.952Z,-0.65
2022-12-08T00:57:53.168Z,-0.68
2022-12-08T01:00:55.737Z,-0.69
2022-12-08T01:03:58.290Z,-0.69
2022-12-08T01:07:00.781Z,-0.67
2022-12-08T01:10:03.590Z,-0.61
2022-12-08T01:13:06.330Z,-0.56
2022-12-08T01:16:09.034Z,-0.66
2022-12-08T01:19:12.913Z,-0.75
2022-12-08T01:22:15.309Z,-0.75
2022-12-08T01:25:18.245Z,-0.80
2022-12-08T01:28:20.517Z,-0.91
2022-12-08T01:31:23.633Z,-0.90
2022-12-08T01:34:25.941Z,-0.89
2022-12-08T01:37:29.478Z,-0.97
2022-12-08T01:40:31.714Z,-0.97
2022-12-08T01:43:46.449Z,-1.04
2022-12-08T01:46:51.452Z,-1.17
2022-12-08T01:49:54.155Z,-1.26
2022-12-08T01:52:59.478Z,-1.37
2022-12-08T01:56:06.846Z,-1.50
2022-12-08T01:59:09.585Z,-1.48
2022-12-08T02:02:12.517Z,-1.54
2022-12-08T02:05:16.217Z,-1.58
2022-12-08T02:08:19.294Z,-1.53
2022-12-08T02:11:21.954Z,-1.57
2022-12-08T02:14:24.638Z,-1.45
2022-12-08T02:17:29.903Z,-1.47
2022-12-08T02:20:35.202Z,-1.56
2022-12-08T02:23:50.526Z,-1.47
2022-12-08T02:27:25.006Z,-1.56
2022-12-08T02:30:37.853Z,-1.55
2022-12-08T02:33:58.270Z,-1.65
2022-12-08T02:37:21.114Z,-1.45
2022-12-08T02:40:44.809Z,-1.40
2022-12-08T02:44:08.506Z,-1.36
2022-12-08T02:47:13.794Z,-1.25
2022-12-08T02:50:16.497Z,-1.12
2022-12-08T02:53:18.837Z,-0.99
2022-12-08T02:56:33.294Z,-1.05
2022-12-08T02:59:41.009Z,-1.10
2022-12-08T03:02:57.008Z,-1.11
2022-12-08T03:06:14.640Z,-1.10
2022-12-08T03:09:28.632Z,-1.00
2022-12-08T03:12:30.866Z,-1.03
2022-12-08T03:15:35.169Z,-1.04
2022-12-08T03:18:38.911Z,-0.96
2022-12-08T03:21:43.573Z,-0.93
2022-12-08T03:24:46.828Z,-0.84
2022-12-08T03:27:49.399Z,-0.83
2022-12-08T03:30:54.146Z,-0.84
2022-12-08T03:33:58.843Z,-0.84
2022-12-08T03:37:02.509Z,-0.80
2022-12-08T03:40:07.213Z,-0.72
2022-12-08T03:43:09.968Z,-0.63
2022-12-08T03:46:12.660Z,-0.59
2022-12-08T03:49:14.853Z,-0.57
2022-12-08T03:52:17.465Z,-0.50
2022-12-08T03:55:21.465Z,-0.49
2022-12-08T03:58:24.214Z,-0.47
2022-12-08T04:01:27.409Z,-0.37
2022-12-08T04:04:30.034Z,-0.40
2022-12-08T04:07:32.507Z,-0.30
2022-12-08T04:10:35.389Z,-0.24
2022-12-08T04:13:38.974Z,-0.23
2022-12-08T04:16:41.527Z,-0.08
2022-12-08T04:19:44.049Z,-0.13
2022-12-08T04:22:46.670Z,-0.16
2022-12-08T04:25:50.685Z,-0.14
2022-12-08T04:28:53.223Z,-0.05
2022-12-08T04:31:55.600Z,-0.11
2022-12-08T04:34:58.114Z,-0.13
2022-12-08T04:38:00.487Z,-0.11
2022-12-08T04:41:03.102Z,-0.10
2022-12-08T04:44:05.337Z,-0.07
2022-12-08T04:47:07.838Z,-0.06
2022-12-08T04:50:10.988Z,-0.06
2022-12-08T04:53:13.782Z,-0.06
2022-12-08T04:56:17.289Z,0.02
2022-12-08T04:59:20.136Z,0.05
2022-12-08T05:02:22.460Z,0.12
2022-12-08T05:05:25.153Z,0.04
2022-12-08T05:08:27.705Z,0.02
2022-12-08T05:11:30.433Z,0.02
2022-12-08T05:14:32.648Z,0.01
2022-12-08T05:17:35.233Z,0.04
2022-12-08T05:20:37.631Z,0.04
2022-12-08T05:23:40.204Z,0.04
2022-12-08T05:26:42.402Z,0.03
2022-12-08T05:29:44.976Z,0.03
2022-12-08T05:32:47.320Z,0.01
2022-12-08T05:35:49.848Z,-0.01
2022-12-08T05:38:52.062Z,0.04
2022-12-08T05:41:54.626Z,0.06
2022-12-08T05:44:56.910Z,0.12
2022-12-08T05:47:59.627Z,0.14
2022-12-08T05:51:01.959Z,0.18
2022-12-08T05:54:04.529Z,0.20
2022-12-08T05:57:06.894Z,0.35
2022-12-08T06:00:09.801Z,0.34
2022-12-08T06:03:14.433Z,0.32
2022-12-08T06:06:16.981Z,0.38
2022-12-08T06:09:19.211Z,0.36
2022-12-08T06:12:22.741Z,0.41
2022-12-08T06:15:25.437Z,0.46
2022-12-08T06:18:32.613Z,0.36
2022-12-08T06:21:35.304Z,0.35
2022-12-08T06:24:37.838Z,0.37
2022-12-08T06:27:40.023Z,0.34
2022-12-08T06:30:42.836Z,0.44
2022-12-08T06:33:45.285Z,0.50
2022-12-08T06:36:47.777Z,0.50
2022-12-08T06:39:50.082Z,0.48
2022-12-08T06:42:52.607Z,0.54
2022-12-08T06:45:54.860Z,0.58
2022-12-08T06:48:58.276Z,0.55
2022-12-08T06:52:00.559Z,0.55
2022-12-08T06:55:03.075Z,0.61
2022-12-08T06:58:05.471Z,0.63
2022-12-08T07:01:09.531Z,0.66
2022-12-08T07:04:12.261Z,0.73
2022-12-08T07:07:14.806Z,0.83
2022-12-08T07:10:17.166Z,0.95
2022-12-08T07:13:20.747Z,1.06
2022-12-08T07:16:23.282Z,1.13
2022-12-08T07:19:26.314Z,1.12
2022-12-08T07:22:28.487Z,1.15
2022-12-08T07:25:31.016Z,1.23
2022-12-08T07:28:34.077Z,1.33
2022-12-08T07:31:36.972Z,1.32
2022-12-08T07:34:39.239Z,1.35
2022-12-08T07:37:41.978Z,1.35
2022-12-08T07:40:44.232Z,1.44
2022-12-08T07:43:47.253Z,1.46
2022-12-08T07:46:49.529Z,1.52
2022-12-08T07:49:52.054Z,1.59
2022-12-08T07:52:54.403Z,1.60
2022-12-08T07:55:57.005Z,1.76
2022-12-08T07:58:59.250Z,1.91
2022-12-08T08:02:22.681Z,2.02
2022-12-08T08:05:24.643Z,2.05
2022-12-08T08:08:26.961Z,2.25
2022-12-08T08:11:29.648Z,2.34
2022-12-08T08:14:31.819Z,2.55
2022-12-08T08:17:35.387Z,2.62
2022-12-08T08:20:37.739Z,2.89
2022-12-08T08:23:40.394Z,3.18
2022-12-08T08:26:42.630Z,3.14
2022-12-08T08:29:45.141Z,3.24
2022-12-08T08:32:47.535Z,3.34
2022-12-08T08:35:50.170Z,3.27
2022-12-08T08:38:52.437Z,3.28
2022-12-08T08:41:55.068Z,3.18
2022-12-08T08:44:57.390Z,3.27
2022-12-08T08:48:00.020Z,3.58
2022-12-08T08:51:09.538Z,3.55
2022-12-08T08:54:13.379Z,3.66
2022-12-08T08:57:23.602Z,3.74
2022-12-08T09:00:28.450Z,3.34
2022-12-08T09:03:30.747Z,3.66
2022-12-08T09:06:33.347Z,3.85
2022-12-08T09:09:35.680Z,3.95
2022-12-08T09:12:38.691Z,4.01
2022-12-08T09:15:40.998Z,3.87
2022-12-08T09:18:43.610Z,3.81
2022-12-08T09:21:46.695Z,3.82
2022-12-08T09:24:49.354Z,3.56
2022-12-08T09:27:51.651Z,3.71
2022-12-08T09:30:54.262Z,3.77
2022-12-08T09:33:56.636Z,3.80
2022-12-08T09:36:59.219Z,3.92
2022-12-08T09:40:02.287Z,4.05
2022-12-08T09:43:10.289Z,3.99
2022-12-08T09:46:15.575Z,4.14
2022-12-08T09:49:21.010Z,4.02
2022-12-08T09:52:29.639Z,3.89
2022-12-08T09:55:52.382Z,3.74
2022-12-08T09:59:04.085Z,3.91
2022-12-08T10:02:20.012Z,3.99
2022-12-08T10:05:25.704Z,4.17
2022-12-08T10:08:38.011Z,4.27
2022-12-08T10:11:43.711Z,4.20
2022-12-08T10:15:09.537Z,4.31
2022-12-08T10:18:32.966Z,4.49
2022-12-08T10:21:35.322Z,4.76
2022-12-08T10:24:43.307Z,4.64
2022-12-08T10:27:49.306Z,4.50
2022-12-08T10:30:51.894Z,4.49
2022-12-08T10:33:58.805Z,4.56
2022-12-08T10:37:09.015Z,4.57
2022-12-08T10:40:11.585Z,4.60
2022-12-08T10:43:25.187Z,4.64
2022-12-08T10:46:28.758Z,4.85
2022-12-08T10:49:33.227Z,5.01
2022-12-08T10:52:55.000Z,4.98
2022-12-08T10:56:03.488Z,5.09
2022-12-08T10:59:05.812Z,5.29
2022-12-08T11:02:16.496Z,5.38
2022-12-08T11:05:20.279Z,5.40
2022-12-08T11:08:22.978Z,4.93
2022-12-08T11:11:39.518Z,5.14
2022-12-08T11:14:42.111Z,5.03
2022-12-08T11:17:48.697Z,5.16
2022-12-08T11:20:57.757Z,5.51
2022-12-08T11:24:09.896Z,5.47
2022-12-08T11:27:12.486Z,5.38
2022-12-08T11:30:30.204Z,5.04
2022-12-08T11:33:33.479Z,5.02
2022-12-08T11:36:36.130Z,5.30
2022-12-08T11:39:43.593Z,5.09
2022-12-08T11:42:53.627Z,5.01
2022-12-08T11:45:58.927Z,5.20
2022-12-08T11:49:06.660Z,5.04
2022-12-08T11:52:15.854Z,4.98
2022-12-08T11:55:37.067Z,4.99
2022-12-08T11:58:44.916Z,4.93
2022-12-08T12:01:47.189Z,4.89
2022-12-08T12:04:58.567Z,4.96
2022-12-08T12:08:19.855Z,4.88
2022-12-08T12:11:42.418Z,4.99
2022-12-08T12:14:52.990Z,5.00
2022-12-08T12:18:14.837Z,4.68
2022-12-08T12:21:21.671Z,4.58
2022-12-08T12:24:29.458Z,4.82
2022-12-08T12:27:39.975Z,4.92
2022-12-08T12:30:51.869Z,4.81
2022-12-08T12:33:57.039Z,4.67
2022-12-08T12:37:10.243Z,4.66
2022-12-08T12:40:19.059Z,4.57
2022-12-08T12:43:28.211Z,4.66
2022-12-08T12:46:38.206Z,4.59
2022-12-08T12:49:40.790Z,4.69
2022-12-08T12:52:43.650Z,4.43
2022-12-08T12:55:46.408Z,4.56
2022-12-08T12:58:53.669Z,4.61
2022-12-08T13:01:56.609Z,4.58
2022-12-08T13:05:01.956Z,4.36
2022-12-08T13:08:15.597Z,4.29
2022-12-08T13:11:18.214Z,4.37
2022-12-08T13:14:26.966Z,4.31
2022-12-08T13:17:30.915Z,4.35
2022-12-08T13:20:41.697Z,4.31
2022-12-08T13:23:46.908Z,4.19
2022-12-08T13:26:50.727Z,4.21
2022-12-08T13:30:12.933Z,4.25
2022-12-08T13:33:26.546Z,4.28
2022-12-08T13:36:32.939Z,4.18
2022-12-08T13:39:55.747Z,4.24
2022-12-08T13:43:09.683Z,4.22
2022-12-08T13:47:02.782Z,4.15
2022-12-08T13:51:15.909Z,4.03
2022-12-08T13:59:49.089Z,4.06
2022-12-08T14:02:53.174Z,4.10
2022-12-08T14:06:12.929Z,4.03
2022-12-08T14:09:20.333Z,4.07
2022-12-08T14:12:27.376Z,4.04
2022-12-08T14:15:37.203Z,3.92
2022-12-08T14:18:40.978Z,3.92
2022-12-08T14:21:46.404Z,3.86
2022-12-08T14:24:50.668Z,3.89
2022-12-08T14:27:57.114Z,3.90
2022-12-08T14:31:00.923Z,3.80
2022-12-08T14:34:03.346Z,3.73
2022-12-08T14:37:09.409Z,3.79
2022-12-08T14:40:25.382Z,3.78
2022-12-08T14:43:28.747Z,3.80
2022-12-08T14:46:31.228Z,3.67
2022-12-08T14:49:38.170Z,3.55
2022-12-08T14:52:43.473Z,3.62
2022-12-08T14:55:47.705Z,3.51
2022-12-08T14:58:51.471Z,3.52
2022-12-08T15:02:08.972Z,3.41
2022-12-08T15:05:21.524Z,3.41
2022-12-08T15:08:24.518Z,3.38
2022-12-08T15:11:31.922Z,3.53
2022-12-08T15:14:35.796Z,3.46
2022-12-08T15:17:45.746Z,3.53
2022-12-08T15:20:53.431Z,3.50
2022-12-08T15:23:56.125Z,3.44
2022-12-08T15:26:58.633Z,3.39
2022-12-08T15:30:01.024Z,3.27
2022-12-08T15:33:03.601Z,3.31
2022-12-08T15:36:06.016Z,3.35
2022-12-08T15:39:20.930Z,3.34
2022-12-08T15:42:23.225Z,3.42
2022-12-08T15:45:28.620Z,3.31
2022-12-08T15:48:31.074Z,3.28
2022-12-08T15:51:36.730Z,3.23
2022-12-08T15:54:39.013Z,3.39
2022-12-08T15:58:44.466Z,3.34
2022-12-08T16:01:07.192Z,3.35
2022-12-08T16:04:47.764Z,3.33
2022-12-08T16:07:37.821Z,3.38
2022-12-08T16:11:28.891Z,3.37
2022-12-08T16:14:36.842Z,3.39
2022-12-08T16:17:27.511Z,3.40
2022-12-08T16:21:05.144Z,3.43
2022-12-08T16:23:53.289Z,3.37
2022-12-08T16:30:19.202Z,3.29
2022-12-08T16:33:22.715Z,3.41
2022-12-08T16:36:25.414Z,3.37
2022-12-08T16:39:30.406Z,3.33
2022-12-08T16:42:39.546Z,3.27
2022-12-08T16:45:45.068Z,3.29
2022-12-08T16:48:47.900Z,3.36
2022-12-08T16:51:50.246Z,3.25
2022-12-08T16:54:52.758Z,3.15
2022-12-08T16:57:55.132Z,3.11
2022-12-08T17:00:57.723Z,3.03
2022-12-08T17:04:31.007Z,2.96
2022-12-08T17:07:22.598Z,2.96
2022-12-08T17:10:26.327Z,3.05
2022-12-08T17:13:28.879Z,2.99
2022-12-08T17:16:31.249Z,2.97
2022-12-08T17:19:34.039Z,3.15
2022-12-08T17:22:36.588Z,3.11
2022-12-08T17:25:39.104Z,3.07
2022-12-08T17:29:00.191Z,3.03
2022-12-08T17:32:03.783Z,3.05
2022-12-08T17:35:06.759Z,3.13
2022-12-08T17:38:09.600Z,3.15
2022-12-08T17:41:12.363Z,3.08
2022-12-08T17:44:19.149Z,3.05
2022-12-08T17:47:22.037Z,3.06
2022-12-08T17:50:24.563Z,3.21
2022-12-08T17:53:26.867Z,3.16
2022-12-08T17:56:29.329Z,3.10
2022-12-08T17:59:31.714Z,3.13
2022-12-08T18:02:35.688Z,2.99
2022-12-08T18:05:38.275Z,3.02
2022-12-08T18:08:40.761Z,3.14
2022-12-08T18:11:44.336Z,3.08
2022-12-08T18:14:46.755Z,3.11
2022-12-08T18:17:49.264Z,3.15
2022-12-08T18:20:51.600Z,3.25
2022-12-08T18:23:54.086Z,3.39
2022-12-08T18:26:57.723Z,3.34
2022-12-08T18:30:01.915Z,3.26
2022-12-08T18:33:05.253Z,3.24
2022-12-08T18:36:09.481Z,3.24
2022-12-08T18:39:38.341Z,3.23
2022-12-08T18:42:40.965Z,3.19
2022-12-08T18:45:43.266Z,3.21
2022-12-08T18:48:47.267Z,3.19
2022-12-08T18:51:49.566Z,3.20
2022-12-08T18:55:07.073Z,3.19
2022-12-08T18:58:10.945Z,3.19
2022-12-08T19:01:14.167Z,3.26
2022-12-08T19:04:37.256Z,3.27
2022-12-08T19:07:39.518Z,3.35
2022-12-08T19:10:41.996Z,3.32
2022-12-08T19:13:44.564Z,3.26
2022-12-08T19:16:46.806Z,3.29
2022-12-08T19:19:49.560Z,3.25
2022-12-08T19:22:51.934Z,3.25
2022-12-08T19:25:54.452Z,3.24
2022-12-08T19:28:57.675Z,3.26
2022-12-08T19:32:00.414Z,3.33
2022-12-08T19:35:07.383Z,3.37
2022-12-08T19:38:09.963Z,3.25
2022-12-08T19:41:36.188Z,3.24
2022-12-08T19:44:54.327Z,3.21
2022-12-08T19:47:56.715Z,3.20
2022-12-08T19:50:59.298Z,3.19
2022-12-08T19:54:02.202Z,3.24
2022-12-08T19:57:04.777Z,3.30
2022-12-08T20:00:08.460Z,3.35
2022-12-08T20:03:15.758Z,3.36
2022-12-08T20:06:18.830Z,3.34
2022-12-08T20:09:21.557Z,3.22
2022-12-08T20:12:24.032Z,3.30
2022-12-08T20:15:26.286Z,3.35
2022-12-08T20:18:28.869Z,3.30
2022-12-08T20:21:31.155Z,3.23
2022-12-08T20:24:33.792Z,3.18
2022-12-08T20:27:36.074Z,3.10
2022-12-08T20:30:39.456Z,3.06
2022-12-08T20:33:41.876Z,3.16
2022-12-08T20:36:44.806Z,3.09
2022-12-08T20:39:47.166Z,3.05
2022-12-08T20:42:49.684Z,3.19
2022-12-08T20:45:52.044Z,3.19
2022-12-08T20:48:55.357Z,3.12
2022-12-08T20:51:57.762Z,3.08
2022-12-08T20:55:00.351Z,3.08
2022-12-08T20:58:02.838Z,3.06
2022-12-08T21:01:09.054Z,3.09
2022-12-08T21:04:12.428Z,3.13
2022-12-08T21:07:15.524Z,3.19
2022-12-08T21:10:17.987Z,3.16
2022-12-08T21:13:20.885Z,3.12
2022-12-08T21:16:23.394Z,3.09
2022-12-08T21:19:26.069Z,3.15
2022-12-08T21:22:30.326Z,3.14
2022-12-08T21:25:33.008Z,2.98
2022-12-08T21:28:35.344Z,3.05
2022-12-08T21:31:38.693Z,3.08
2022-12-08T21:34:41.301Z,3.17
2022-12-08T21:37:43.907Z,3.14
2022-12-08T21:40:46.329Z,3.10
2022-12-08T21:43:48.817Z,3.14
2022-12-08T21:46:51.306Z,3.01
2022-12-08T21:49:53.932Z,2.93
2022-12-08T21:52:56.280Z,2.97
2022-12-08T21:55:58.899Z,2.86
2022-12-08T21:59:01.170Z,2.85
2022-12-08T22:02:04.286Z,2.91
2022-12-08T22:05:07.133Z,2.93
2022-12-08T22:08:10.680Z,2.83
2022-12-08T22:11:13.576Z,2.93
2022-12-08T22:14:15.894Z,2.93
2022-12-08T22:17:18.755Z,2.90
2022-12-08T22:20:22.343Z,2.78
2022-12-08T22:23:24.974Z,2.84
2022-12-08T22:26:27.432Z,2.89
2022-12-08T22:29:30.062Z,2.91
2022-12-08T22:32:32.486Z,2.84
2022-12-08T22:35:35.123Z,2.81
2022-12-08T22:38:37.390Z,2.85
2022-12-08T22:41:39.995Z,2.88
2022-12-08T22:44:42.322Z,2.89
2022-12-08T22:47:44.924Z,2.90
2022-12-08T22:50:47.275Z,2.90
2022-12-08T22:53:50.143Z,2.94
2022-12-08T22:56:52.356Z,2.93
2022-12-08T22:59:54.992Z,2.94
2022-12-08T23:02:57.627Z,2.97
2022-12-08T23:06:00.683Z,2.97
2022-12-08T23:09:03.159Z,2.93
2022-12-08T23:12:06.239Z,3.02
2022-12-08T23:15:08.769Z,3.01
2022-12-08T23:18:14.460Z,3.04
2022-12-08T23:21:18.927Z,3.00
2022-12-08T23:24:21.678Z,2.99
2022-12-08T23:27:24.151Z,2.94
2022-12-08T23:30:29.384Z,2.89
2022-12-08T23:33:32.591Z,2.85
2022-12-08T23:36:35.269Z,2.91
2022-12-08T23:39:37.727Z,2.95
2022-12-08T23:42:40.214Z,2.81
2022-12-08T23:45:42.492Z,2.77
2022-12-08T23:48:45.658Z,2.85
2022-12-08T23:51:48.215Z,2.90
2022-12-08T23:54:51.180Z,2.91
2022-12-08T23:57:53.512Z,2.99
